Time;durP1;ratioP1;P1;durP2;ratioP2;P2;SDS_P1;SDS_P2;PMS_P1;PMS_P2;Temp;Humidity;BMP_temperature;BMP_pressure;BME280_temperature;BME280_humidity;BME280_pressure;Samples;Min_cycle;Max_cycle;Signal;HPM_P1;HPM_P2
2021/12/22 00:02:05;;;;;;;28.60;10.93;;;-10.50;99.90;;;;;;5011747;28;20754;-56
2021/12/22 00:04:33;;;;;;;24.87;9.23;;;-10.50;99.90;;;;;;5011817;28;20179;-66
2021/12/22 00:06:59;;;;;;;31.70;11.80;;;-10.50;99.90;;;;;;5012346;28;20723;-56
2021/12/22 00:09:24;;;;;;;28.27;10.90;;;-10.50;99.90;;;;;;4994561;28;20520;-57
2021/12/22 00:12:01;;;;;;;21.50;9.17;;;-10.50;99.90;;;;;;4994325;28;20180;-55
2021/12/22 00:14:26;;;;;;;23.40;8.37;;;-10.50;99.90;;;;;;5020433;28;20244;-55
2021/12/22 00:16:52;;;;;;;27.57;10.40;;;-10.50;99.90;;;;;;5030587;28;20559;-57
2021/12/22 00:19:18;;;;;;;38.33;9.50;;;-10.50;99.90;;;;;;5031830;28;20179;-55
2021/12/22 00:21:44;;;;;;;23.87;8.63;;;-10.30;99.90;;;;;;5031306;28;20189;-54
2021/12/22 00:24:09;;;;;;;31.47;9.33;;;-10.30;99.90;;;;;;5013878;28;20189;-59
2021/12/22 00:26:35;;;;;;;21.80;9.13;;;-10.30;99.90;;;;;;5031431;28;20193;-55
2021/12/22 00:29:01;;;;;;;19.87;6.90;;;-10.20;99.90;;;;;;5029426;28;20183;-53
2021/12/22 00:31:27;;;;;;;17.60;6.63;;;-10.00;99.90;;;;;;4977836;28;20278;-55
2021/12/22 00:33:55;;;;;;;15.83;6.20;;;-10.00;99.90;;;;;;5011333;28;20242;-56
2021/12/22 00:36:24;;;;;;;21.00;7.57;;;-9.80;99.90;;;;;;5011898;28;20413;-54
2021/12/22 00:38:51;;;;;;;21.27;8.03;;;-9.70;99.90;;;;;;5011549;28;20819;-56
2021/12/22 00:41:17;;;;;;;21.13;8.20;;;-9.70;99.90;;;;;;5011898;28;20508;-55
2021/12/22 00:43:43;;;;;;;22.97;8.07;;;-9.80;99.90;;;;;;5013771;28;20478;-55
2021/12/22 00:46:09;;;;;;;21.17;7.73;;;-9.90;99.90;;;;;;5031322;28;20409;-60
2021/12/22 00:48:35;;;;;;;14.93;6.40;;;-10.00;99.90;;;;;;5031276;28;20566;-55
2021/12/22 00:51:01;;;;;;;14.17;6.43;;;-10.10;99.90;;;;;;5022180;28;20246;-55
2021/12/22 00:53:27;;;;;;;15.57;7.37;;;-10.30;99.90;;;;;;5011759;28;20235;-56
2021/12/22 00:55:54;;;;;;;17.80;7.40;;;-10.40;99.90;;;;;;5011366;28;20409;-56
2021/12/22 00:58:20;;;;;;;10.80;5.77;;;-10.40;99.90;;;;;;5011666;28;20198;-59
2021/12/22 01:00:48;;;;;;;8.93;4.70;;;-10.50;99.90;;;;;;4977527;28;20422;-53
2021/12/22 01:03:15;;;;;;;11.93;5.87;;;-10.40;99.90;;;;;;5011220;28;20450;-55
2021/12/22 01:05:41;;;;;;;17.10;6.27;;;-10.30;99.90;;;;;;5010886;28;20900;-56
2021/12/22 01:08:07;;;;;;;18.23;8.43;;;-10.40;99.90;;;;;;5011582;28;20410;-57
2021/12/22 01:10:33;;;;;;;21.83;8.07;;;-10.40;99.90;;;;;;5010861;28;20187;-59
2021/12/22 01:13:01;;;;;;;16.07;7.53;;;-10.50;99.90;;;;;;5011453;28;20212;-55
2021/12/22 01:15:28;;;;;;;70.97;12.60;;;-10.60;99.90;;;;;;5009886;28;20464;-57
2021/12/22 01:18:01;;;;;;;21.50;8.63;;;-10.70;99.90;;;;;;5030051;28;20412;-56
2021/12/22 01:20:32;;;;;;;25.50;7.10;;;-10.70;99.90;;;;;;5031007;28;20458;-56
2021/12/22 01:23:05;;;;;;;20.20;7.80;;;-10.70;99.90;;;;;;5030949;28;20415;-58
2021/12/22 01:25:42;;;;;;;18.27;7.80;;;-10.70;99.90;;;;;;5032421;28;20451;-68
2021/12/22 01:28:07;;;;;;;15.30;6.03;;;-10.80;99.90;;;;;;5034689;28;20487;-53
2021/12/22 01:30:36;;;;;;;18.57;6.23;;;-10.90;99.90;;;;;;5034052;28;20491;-54
2021/12/22 01:33:03;;;;;;;14.77;6.00;;;-10.90;99.90;;;;;;5033995;28;20307;-57
2021/12/22 01:35:33;;;;;;;16.97;5.20;;;-10.80;99.90;;;;;;5034278;28;20408;-54
2021/12/22 01:37:59;;;;;;;17.33;5.60;;;-10.80;99.90;;;;;;5034531;28;20414;-56
2021/12/22 01:40:26;;;;;;;15.20;4.93;;;-10.80;99.90;;;;;;5034516;28;20880;-57
2021/12/22 01:42:57;;;;;;;12.07;6.20;;;-10.80;99.90;;;;;;5034092;28;20511;-57
2021/12/22 01:45:48;;;;;;;19.13;5.90;;;-10.80;99.90;;;;;;5034149;28;20423;-57
2021/12/22 01:51:07;;;;;;;12.33;3.27;;;-10.50;99.90;;;;;;5009819;28;20419;-59
2021/12/22 01:53:44;;;;;;;4.43;2.77;;;-10.30;99.90;;;;;;5014002;28;20490;-54
2021/12/22 01:56:25;;;;;;;8.80;2.77;;;-10.00;99.90;;;;;;5014122;28;20395;-56
2021/12/22 01:58:55;;;;;;;11.40;3.17;;;-9.80;99.90;;;;;;5013727;28;20434;-54
2021/12/22 02:01:21;;;;;;;17.63;3.80;;;-9.60;99.90;;;;;;5014088;28;20393;-56
2021/12/22 02:03:49;;;;;;;8.30;3.27;;;-9.40;99.90;;;;;;5013657;28;20417;-59
2021/12/22 02:06:16;;;;;;;26.07;5.33;;;-9.30;99.90;;;;;;5014199;28;20407;-53
2021/12/22 02:08:44;;;;;;;6.03;3.40;;;-9.30;99.90;;;;;;5013820;28;20403;-54
2021/12/22 02:11:11;;;;;;;15.53;4.50;;;-9.30;99.90;;;;;;5014053;28;20416;-54
2021/12/22 02:13:41;;;;;;;15.67;4.50;;;-9.20;99.90;;;;;;5014890;28;20460;-54
2021/12/22 02:16:12;;;;;;;6.40;3.40;;;-9.20;99.90;;;;;;5033141;28;20959;-58
2021/12/22 02:18:41;;;;;;;7.83;3.40;;;-9.20;99.90;;;;;;5033377;28;20451;-56
2021/12/22 02:21:07;;;;;;;8.53;3.50;;;-9.10;99.90;;;;;;5033602;28;20923;-55
2021/12/22 02:23:34;;;;;;;8.00;3.87;;;-9.10;99.90;;;;;;5033306;28;20483;-58
2021/12/22 02:26:08;;;;;;;6.60;3.23;;;-9.10;99.90;;;;;;5033428;28;20408;-55
2021/12/22 02:28:36;;;;;;;7.43;2.80;;;-9.10;99.90;;;;;;5033264;28;20392;-57
2021/12/22 02:31:03;;;;;;;8.70;3.77;;;-9.10;99.90;;;;;;5014318;28;20737;-56
2021/12/22 02:38:44;;;;;;;7.27;2.40;;;-8.80;99.90;;;;;;5013360;28;20480;-55
2021/12/22 02:41:14;;;;;;;7.10;2.43;;;-8.60;99.90;;;;;;5013492;28;20455;-56
2021/12/22 02:43:49;;;;;;;7.27;3.00;;;-8.50;99.90;;;;;;5014936;28;20500;-57
2021/12/22 02:46:18;;;;;;;6.03;2.70;;;-8.50;99.90;;;;;;5032585;28;20456;-57
2021/12/22 02:48:45;;;;;;;9.77;2.80;;;-8.40;99.90;;;;;;5032599;28;20846;-57
2021/12/22 02:51:11;;;;;;;7.60;2.53;;;-8.40;99.90;;;;;;5022101;28;20441;-58
2021/12/22 02:53:47;;;;;;;8.27;3.27;;;-8.40;99.90;;;;;;4994806;28;20533;-57
2021/12/22 02:59:00;;;;;;;9.27;2.90;;;-8.40;99.90;;;;;;5012648;28;20458;-57
2021/12/22 03:04:10;;;;;;;7.67;1.83;;;-8.20;99.90;;;;;;5013228;28;20913;-53
2021/12/22 03:06:48;;;;;;;4.80;2.57;;;-8.30;99.90;;;;;;5013041;28;20395;-56
2021/12/22 03:09:32;;;;;;;17.83;3.30;;;-8.30;99.90;;;;;;5013496;28;20433;-57
2021/12/22 03:12:00;;;;;;;12.10;3.27;;;-8.30;99.90;;;;;;5013235;28;20421;-57
2021/12/22 03:14:27;;;;;;;6.67;2.70;;;-8.30;99.90;;;;;;5021307;28;20490;-55
2021/12/22 03:16:53;;;;;;;12.70;2.83;;;-8.30;99.90;;;;;;5031832;28;20452;-55
2021/12/22 03:19:22;;;;;;;8.93;2.40;;;-8.30;99.90;;;;;;5032841;28;20412;-56
2021/12/22 03:21:51;;;;;;;19.63;3.00;;;-8.20;99.90;;;;;;5032128;28;20396;-55
2021/12/22 03:24:19;;;;;;;4.80;1.90;;;-8.20;99.90;;;;;;5032229;28;20836;-55
2021/12/22 03:26:45;;;;;;;4.63;1.67;;;-8.20;99.90;;;;;;5032111;28;20930;-59
2021/12/22 03:29:13;;;;;;;3.90;2.07;;;-8.10;99.90;;;;;;5028973;28;20427;-59
2021/12/22 03:31:40;;;;;;;8.27;2.50;;;-8.10;99.90;;;;;;5011974;28;20206;-55
2021/12/22 03:34:07;;;;;;;14.17;3.37;;;-8.00;99.90;;;;;;5012185;28;20448;-58
2021/12/22 03:36:33;;;;;;;12.80;3.17;;;-8.00;99.90;;;;;;5012206;28;20413;-60
2021/12/22 03:38:59;;;;;;;6.37;2.57;;;-8.00;99.90;;;;;;5012449;28;20418;-56
2021/12/22 03:41:25;;;;;;;11.00;2.77;;;-8.00;99.90;;;;;;5012298;28;20786;-57
2021/12/22 03:43:51;;;;;;;7.73;2.33;;;-8.10;99.90;;;;;;5016013;28;21056;-53
2021/12/22 03:46:17;;;;;;;4.73;1.93;;;-8.10;99.90;;;;;;5031795;28;20403;-63
2021/12/22 03:48:43;;;;;;;7.03;2.13;;;-8.20;99.90;;;;;;5031489;28;20768;-56
2021/12/22 03:51:09;;;;;;;17.30;2.73;;;-8.20;99.90;;;;;;5021521;28;20282;-56
2021/12/22 03:53:35;;;;;;;6.20;2.33;;;-8.30;99.90;;;;;;5011330;28;20266;-57
2021/12/22 03:56:00;;;;;;;8.00;2.23;;;-8.40;99.90;;;;;;4994533;28;20193;-57
2021/12/22 03:58:26;;;;;;;12.47;3.03;;;-8.60;99.90;;;;;;5012642;28;20258;-58
2021/12/22 04:00:56;;;;;;;10.87;3.33;;;-8.70;99.90;;;;;;4993802;28;20329;-59
2021/12/22 04:03:25;;;;;;;6.00;2.27;;;-8.80;99.90;;;;;;5012008;28;20204;-59
2021/12/22 04:05:51;;;;;;;5.57;3.00;;;-8.80;99.90;;;;;;5011943;28;20409;-60
2021/12/22 04:08:20;;;;;;;6.67;2.47;;;-9.00;99.90;;;;;;4994300;28;20592;-55
2021/12/22 04:10:48;;;;;;;25.83;5.07;;;-9.00;99.90;;;;;;5011996;28;20268;-52
2021/12/22 04:13:14;;;;;;;6.60;2.20;;;-8.80;99.90;;;;;;4994256;28;20457;-55
2021/12/22 04:15:41;;;;;;;6.63;3.07;;;-8.70;99.90;;;;;;5029760;28;20463;-56
2021/12/22 04:18:07;;;;;;;7.03;2.77;;;-8.50;99.90;;;;;;5031570;28;20408;-58
2021/12/22 04:20:33;;;;;;;5.23;2.40;;;-8.30;99.90;;;;;;4997296;28;20412;-58
2021/12/22 04:23:01;;;;;;;8.87;2.47;;;-8.10;99.90;;;;;;5013500;28;20437;-51
2021/12/22 04:25:28;;;;;;;17.87;3.83;;;-8.10;99.90;;;;;;4997409;28;20417;-57
2021/12/22 04:28:02;;;;;;;13.87;2.43;;;-8.00;99.90;;;;;;5012848;28;20424;-55
2021/12/22 04:30:29;;;;;;;12.73;2.60;;;-8.00;99.90;;;;;;4999256;28;20427;-56
2021/12/22 04:32:54;;;;;;;11.53;3.00;;;-8.00;99.90;;;;;;5010787;28;20464;-57
2021/12/22 04:35:20;;;;;;;13.03;2.83;;;-8.10;99.90;;;;;;4994000;28;20507;-54
2021/12/22 04:37:46;;;;;;;16.17;3.03;;;-8.20;99.90;;;;;;5011093;28;20182;-53
2021/12/22 04:40:12;;;;;;;7.17;2.83;;;-8.20;99.90;;;;;;5011601;28;20532;-53
2021/12/22 04:42:38;;;;;;;25.40;3.13;;;-8.10;99.90;;;;;;5011241;28;20244;-59
2021/12/22 04:45:06;;;;;;;21.60;3.80;;;-8.00;99.90;;;;;;5024194;28;20527;-54
2021/12/22 04:47:36;;;;;;;6.63;2.73;;;-8.00;99.90;;;;;;5031202;28;20175;-68
2021/12/22 04:50:09;;;;;;;17.87;2.77;;;-7.80;99.90;;;;;;5029369;28;20430;-56
2021/12/22 04:52:43;;;;;;;11.60;2.97;;;-7.80;99.90;;;;;;5010710;28;20496;-56
2021/12/22 04:55:09;;;;;;;20.33;4.13;;;-7.80;99.90;;;;;;4994911;28;20420;-53
2021/12/22 04:57:35;;;;;;;28.73;5.73;;;-7.70;99.90;;;;;;5010200;28;20855;-59
2021/12/22 05:00:04;;;;;;;15.47;3.37;;;-7.80;99.90;;;;;;5011494;28;20176;-55
2021/12/22 05:02:33;;;;;;;7.73;2.20;;;-7.80;99.90;;;;;;4997036;28;20260;-56
2021/12/22 05:04:59;;;;;;;12.40;3.23;;;-7.80;99.90;;;;;;4997521;28;20418;-60
2021/12/22 05:07:24;;;;;;;10.33;3.40;;;-7.80;99.90;;;;;;5015109;28;20562;-58
2021/12/22 05:09:50;;;;;;;4.73;2.03;;;-7.80;99.90;;;;;;5014747;28;20188;-53
2021/12/22 05:12:16;;;;;;;13.03;2.63;;;-7.70;99.90;;;;;;5015120;28;20218;-55
2021/12/22 05:14:47;;;;;;;6.60;1.93;;;-7.70;99.90;;;;;;5007015;28;20582;-58
2021/12/22 05:17:19;;;;;;;8.50;2.17;;;-7.80;99.90;;;;;;5001591;28;20190;-58
2021/12/22 05:19:45;;;;;;;18.40;2.80;;;-7.80;99.90;;;;;;5016681;28;20285;-60
2021/12/22 05:22:11;;;;;;;10.97;2.17;;;-7.70;99.90;;;;;;5034216;28;20571;-58
2021/12/22 05:24:37;;;;;;;11.53;3.33;;;-7.70;99.90;;;;;;5034311;28;20619;-59
2021/12/22 05:27:03;;;;;;;14.63;2.60;;;-7.60;99.90;;;;;;5034074;28;20241;-55
2021/12/22 05:29:29;;;;;;;8.50;3.30;;;-7.60;99.90;;;;;;5026605;28;20277;-57
2021/12/22 05:31:56;;;;;;;10.80;2.97;;;-7.70;99.90;;;;;;5013670;28;20263;-59
2021/12/22 05:34:23;;;;;;;13.10;3.00;;;-7.60;99.90;;;;;;4996095;28;20210;-57
2021/12/22 05:36:56;;;;;;;11.27;3.10;;;-7.60;99.90;;;;;;5013687;28;20416;-57
2021/12/22 05:39:22;;;;;;;5.97;3.03;;;-7.60;99.90;;;;;;4995524;28;20448;-55
2021/12/22 05:41:48;;;;;;;19.00;2.67;;;-7.60;99.90;;;;;;4996198;28;20421;-55
2021/12/22 05:44:13;;;;;;;9.47;2.30;;;-7.60;99.90;;;;;;5020714;28;20212;-55
2021/12/22 05:46:39;;;;;;;12.17;3.10;;;-7.60;99.90;;;;;;5032980;28;20416;-57
2021/12/22 05:49:05;;;;;;;23.00;4.57;;;-7.60;99.90;;;;;;5033438;28;20301;-58
2021/12/22 05:51:33;;;;;;;11.43;3.00;;;-7.60;99.90;;;;;;5019928;28;20266;-55
2021/12/22 05:53:59;;;;;;;11.60;2.80;;;-7.50;99.90;;;;;;4995235;28;20624;-56
2021/12/22 05:56:30;;;;;;;7.17;2.57;;;-7.50;99.90;;;;;;5013245;28;20510;-53
2021/12/22 05:58:56;;;;;;;7.90;2.77;;;-7.40;99.90;;;;;;5011892;28;20221;-59
2021/12/22 06:01:22;;;;;;;12.67;3.30;;;-7.40;99.90;;;;;;5013536;28;20423;-54
2021/12/22 06:03:48;;;;;;;5.33;2.40;;;-7.30;99.90;;;;;;5013348;28;20398;-57
2021/12/22 06:06:23;;;;;;;13.50;3.07;;;-7.30;99.90;;;;;;5012796;28;20245;-57
2021/12/22 06:08:48;;;;;;;16.40;3.27;;;-7.30;99.90;;;;;;4995543;28;20183;-58
2021/12/22 06:11:14;;;;;;;5.93;2.47;;;-7.30;99.90;;;;;;4995603;28;20497;-58
2021/12/22 06:13:40;;;;;;;16.00;3.63;;;-7.30;99.90;;;;;;4997474;28;20218;-54
2021/12/22 06:16:05;;;;;;;15.53;3.07;;;-7.20;99.90;;;;;;5031926;28;20231;-57
2021/12/22 06:18:31;;;;;;;11.83;3.57;;;-7.20;99.90;;;;;;5033184;28;20202;-59
2021/12/22 06:20:58;;;;;;;22.53;4.03;;;-7.20;99.90;;;;;;5010778;28;20195;-56
2021/12/22 06:23:24;;;;;;;23.67;3.17;;;-7.20;99.90;;;;;;5023424;28;20203;-57
2021/12/22 06:25:49;;;;;;;20.73;4.23;;;-7.20;99.90;;;;;;5032594;28;20198;-54
2021/12/22 06:28:15;;;;;;;10.87;3.10;;;-7.10;99.90;;;;;;5029982;28;20202;-54
2021/12/22 06:30:41;;;;;;;13.27;3.60;;;-7.00;99.70;;;;;;5009951;28;20191;-58
2021/12/22 06:33:07;;;;;;;12.27;4.37;;;-6.90;99.50;;;;;;5026282;28;20690;-58
2021/12/22 06:35:35;;;;;;;11.43;3.07;;;-6.90;99.50;;;;;;5001861;28;20195;-57
2021/12/22 06:38:01;;;;;;;20.73;3.20;;;-6.90;99.30;;;;;;5032033;28;20226;-63
2021/12/22 06:40:27;;;;;;;24.03;3.40;;;-6.80;99.50;;;;;;5016900;28;20211;-57
2021/12/22 06:42:52;;;;;;;20.80;3.60;;;-6.80;99.50;;;;;;5002287;28;20202;-57
2021/12/22 06:45:18;;;;;;;6.57;2.70;;;-6.80;99.20;;;;;;5001842;28;20185;-60
2021/12/22 06:47:44;;;;;;;11.63;3.20;;;-6.70;99.00;;;;;;5029916;28;20224;-60
2021/12/22 06:50:10;;;;;;;8.53;2.83;;;-6.60;99.00;;;;;;5014052;28;20189;-59
2021/12/22 06:52:36;;;;;;;8.63;3.80;;;-6.50;98.90;;;;;;5031945;28;20228;-61
2021/12/22 06:55:02;;;;;;;5.47;2.37;;;-6.40;98.50;;;;;;5002394;28;20190;-61
2021/12/22 06:57:30;;;;;;;7.77;2.47;;;-6.40;98.00;;;;;;5032725;28;20274;-57
2021/12/22 06:59:57;;;;;;;12.63;3.30;;;-6.30;98.40;;;;;;5012523;28;20225;-61
2021/12/22 07:02:25;;;;;;;17.73;3.40;;;-6.30;98.50;;;;;;5029353;28;20580;-62
2021/12/22 07:04:50;;;;;;;10.83;2.57;;;-6.30;98.40;;;;;;5024564;28;20237;-58
2021/12/22 07:07:16;;;;;;;17.40;3.73;;;-6.20;98.30;;;;;;4994207;28;20195;-56
2021/12/22 07:09:42;;;;;;;7.60;3.37;;;-6.20;98.40;;;;;;5014806;28;20283;-54
2021/12/22 07:12:10;;;;;;;24.23;4.00;;;-6.10;98.30;;;;;;5027349;28;20179;-54
2021/12/22 07:14:36;;;;;;;29.77;5.20;;;-6.10;98.30;;;;;;4992994;28;20651;-61
2021/12/22 07:17:02;;;;;;;15.77;3.70;;;-6.00;98.50;;;;;;5031515;28;20186;-55
2021/12/22 07:19:28;;;;;;;15.03;3.53;;;-6.00;98.40;;;;;;5019259;28;20194;-57
2021/12/22 07:21:54;;;;;;;15.67;3.97;;;-6.00;98.30;;;;;;5028863;28;20207;-61
2021/12/22 07:24:21;;;;;;;15.63;3.77;;;-6.00;98.50;;;;;;5018714;28;20191;-57
2021/12/22 07:26:47;;;;;;;8.37;2.83;;;-6.00;98.70;;;;;;5028269;28;20194;-58
2021/12/22 07:29:12;;;;;;;8.47;3.27;;;-5.90;99.10;;;;;;5012613;28;20530;-59
2021/12/22 07:31:38;;;;;;;10.60;3.27;;;-5.90;98.90;;;;;;5031339;28;20229;-58
2021/12/22 07:34:15;;;;;;;8.80;3.07;;;-5.90;99.00;;;;;;5022294;28;20613;-58
2021/12/22 07:37:14;;;;;;;18.53;3.13;;;-5.90;98.70;;;;;;5027574;28;20178;-59
2021/12/22 07:39:40;;;;;;;25.73;4.83;;;-5.90;98.80;;;;;;5016581;28;20231;-53
2021/12/22 07:42:06;;;;;;;4.93;2.57;;;-5.80;99.30;;;;;;5013052;28;20186;-59
2021/12/22 07:44:32;;;;;;;17.47;4.13;;;-5.80;99.00;;;;;;5012092;28;20201;-71
2021/12/22 07:46:57;;;;;;;23.40;3.53;;;-5.80;99.10;;;;;;5031077;28;20249;-61
2021/12/22 07:49:23;;;;;;;15.13;4.40;;;-5.70;99.40;;;;;;5029256;28;20245;-63
2021/12/22 07:51:49;;;;;;;6.23;3.20;;;-5.70;99.50;;;;;;4995822;28;20226;-62
2021/12/22 07:54:15;;;;;;;19.03;5.20;;;-5.60;99.80;;;;;;4991074;28;20215;-64
2021/12/22 07:56:40;;;;;;;12.57;3.53;;;-5.40;99.80;;;;;;5010278;28;20273;-66
2021/12/22 07:59:06;;;;;;;18.90;4.70;;;-5.20;99.00;;;;;;5010660;28;20361;-62
2021/12/22 08:01:32;;;;;;;16.77;3.77;;;-5.00;99.00;;;;;;5010740;28;20277;-78
2021/12/22 08:03:59;;;;;;;14.37;3.37;;;-4.80;98.90;;;;;;5028189;28;20286;-61
2021/12/22 08:06:25;;;;;;;10.47;3.47;;;-4.70;98.50;;;;;;5028593;28;20174;-68
2021/12/22 08:08:50;;;;;;;8.60;3.10;;;-4.60;98.20;;;;;;5010449;28;20261;-66
2021/12/22 08:11:16;;;;;;;55.23;8.90;;;-4.20;98.10;;;;;;5028205;28;20206;-65
2021/12/22 08:13:42;;;;;;;24.93;4.43;;;-4.00;98.60;;;;;;5028070;28;20626;-65
2021/12/22 08:16:08;;;;;;;18.93;4.10;;;-3.80;97.80;;;;;;5029192;28;20259;-67
2021/12/22 08:18:34;;;;;;;17.37;4.87;;;-3.60;97.50;;;;;;5029709;28;20189;-60
2021/12/22 08:21:00;;;;;;;28.47;4.40;;;-3.60;97.30;;;;;;5030035;28;20209;-61
2021/12/22 08:23:26;;;;;;;41.40;5.90;;;-3.60;96.50;;;;;;5030149;28;20195;-64
2021/12/22 08:25:52;;;;;;;19.20;3.40;;;-3.60;96.40;;;;;;5000121;28;20266;-60
2021/12/22 08:28:18;;;;;;;12.50;2.83;;;-3.50;96.30;;;;;;5011710;28;20201;-60
2021/12/22 08:30:44;;;;;;;6.27;2.40;;;-3.40;96.20;;;;;;5026599;28;20239;-61
2021/12/22 08:33:19;;;;;;;24.10;4.30;;;-3.30;96.40;;;;;;5030783;28;20198;-61
2021/12/22 08:38:50;;;;;;;13.97;3.47;;;-3.20;96.70;;;;;;5035280;28;20245;-63
2021/12/22 08:41:49;;;;;;;18.60;3.67;;;-2.80;96.50;;;;;;5020081;28;20182;-60
2021/12/22 08:44:18;;;;;;;5.43;2.90;;;-2.80;95.50;;;;;;5022614;28;20205;-61
2021/12/22 08:46:48;;;;;;;30.07;5.50;;;-2.80;95.60;;;;;;5035068;28;20231;-61
2021/12/22 08:49:14;;;;;;;15.47;4.70;;;-3.20;95.90;;;;;;5034831;28;20232;-60
2021/12/22 08:51:40;;;;;;;12.43;3.70;;;-3.20;96.20;;;;;;5034680;28;20193;-61
2021/12/22 08:54:07;;;;;;;10.73;3.83;;;-3.20;96.20;;;;;;5034230;28;20220;-61
2021/12/22 08:56:36;;;;;;;19.47;5.20;;;-3.30;96.70;;;;;;5033537;28;20248;-62
2021/12/22 08:59:04;;;;;;;10.47;4.20;;;-3.20;97.20;;;;;;5033894;28;20185;-62
2021/12/22 09:01:30;;;;;;;13.53;4.23;;;-3.10;97.20;;;;;;5034991;28;20293;-61
2021/12/22 09:03:56;;;;;;;15.57;4.63;;;-2.70;97.50;;;;;;5034868;28;20182;-60
2021/12/22 09:06:22;;;;;;;14.33;3.37;;;-2.50;97.00;;;;;;5017302;28;20285;-61
2021/12/22 09:08:48;;;;;;;12.73;3.80;;;-2.70;98.20;;;;;;5034749;28;20220;-61
2021/12/22 09:11:14;;;;;;;6.53;3.30;;;-3.10;99.90;;;;;;5034590;28;20272;-61
2021/12/22 09:13:41;;;;;;;5.43;2.93;;;-3.40;99.90;;;;;;5016815;28;20246;-61
2021/12/22 09:16:08;;;;;;;6.10;3.17;;;-3.60;99.90;;;;;;5034471;28;20339;-60
2021/12/22 09:18:34;;;;;;;10.73;4.00;;;-3.80;99.90;;;;;;5017085;28;20658;-62
2021/12/22 09:21:00;;;;;;;10.03;4.60;;;-3.90;99.90;;;;;;5035157;28;20212;-60
2021/12/22 09:23:26;;;;;;;8.10;4.00;;;-3.80;99.90;;;;;;5034996;28;20277;-61
2021/12/22 09:25:52;;;;;;;7.83;3.27;;;-3.90;99.90;;;;;;5034590;28;20193;-61
2021/12/22 09:28:18;;;;;;;8.70;3.73;;;-3.90;99.90;;;;;;5034819;28;20234;-61
2021/12/22 09:30:45;;;;;;;7.07;3.50;;;-3.80;99.90;;;;;;5034614;28;20181;-61
2021/12/22 09:33:14;;;;;;;2.87;1.73;;;-4.00;99.90;;;;;;5034785;28;20266;-60
2021/12/22 09:35:41;;;;;;;7.20;2.43;;;-4.10;99.90;;;;;;5034800;28;20215;-61
2021/12/22 09:38:07;;;;;;;5.43;2.63;;;-4.30;99.90;;;;;;5033971;28;20357;-61
2021/12/22 09:40:35;;;;;;;6.17;2.70;;;-4.40;99.90;;;;;;5034133;28;20184;-60
2021/12/22 09:43:01;;;;;;;8.30;3.33;;;-4.60;99.90;;;;;;5015830;28;20192;-61
2021/12/22 09:45:27;;;;;;;3.83;2.30;;;-4.50;99.90;;;;;;5033469;28;20175;-60
2021/12/22 09:50:44;;;;;;;9.20;3.03;;;-4.30;99.90;;;;;;5028919;28;20181;-63
2021/12/22 09:53:11;;;;;;;8.80;4.23;;;-4.00;99.90;;;;;;5014054;28;20220;-59
2021/12/22 09:55:37;;;;;;;13.27;4.07;;;-3.70;99.90;;;;;;5014405;28;20698;-62
2021/12/22 09:58:04;;;;;;;12.47;5.70;;;-3.50;99.90;;;;;;5013879;28;20194;-60
2021/12/22 10:00:34;;;;;;;12.27;5.37;;;-3.60;99.90;;;;;;4996755;28;20196;-61
2021/12/22 10:03:00;;;;;;;13.37;5.67;;;-3.60;99.90;;;;;;5014176;28;20542;-62
2021/12/22 10:05:26;;;;;;;14.17;4.90;;;-3.60;99.90;;;;;;5013290;28;20182;-61
2021/12/22 10:08:10;;;;;;;11.53;5.20;;;-3.60;99.90;;;;;;4979864;28;20196;-60
2021/12/22 10:10:45;;;;;;;8.60;3.50;;;-3.80;99.90;;;;;;4995770;28;20182;-75
2021/12/22 10:13:17;;;;;;;11.70;3.87;;;-3.60;99.90;;;;;;5013697;28;20311;-60
2021/12/22 10:15:43;;;;;;;10.20;3.77;;;-3.70;99.90;;;;;;5015185;28;20690;-59
2021/12/22 10:21:21;;;;;;;10.40;3.57;;;-3.70;99.90;;;;;;5014237;28;20736;-63
2021/12/22 10:23:53;;;;;;;7.90;3.20;;;-3.70;99.90;;;;;;5013577;28;20189;-61
2021/12/22 10:26:26;;;;;;;8.23;3.70;;;-3.90;99.90;;;;;;5029779;28;20215;-62
2021/12/22 10:29:00;;;;;;;6.30;3.00;;;-4.10;99.90;;;;;;5032559;28;20159;-61
2021/12/22 10:31:42;;;;;;;11.90;4.33;;;-4.20;99.90;;;;;;5032971;28;20278;-60
2021/12/22 10:34:11;;;;;;;6.77;3.40;;;-4.10;99.90;;;;;;5033711;28;20200;-61
2021/12/22 10:36:51;;;;;;;8.73;3.87;;;-3.90;99.90;;;;;;5033282;28;20532;-79
2021/12/22 10:39:32;;;;;;;9.77;4.43;;;-4.00;99.90;;;;;;5015912;28;20274;-61
2021/12/22 10:42:04;;;;;;;13.67;5.80;;;-3.90;99.90;;;;;;5032377;28;20207;-66
2021/12/22 10:44:38;;;;;;;9.97;3.87;;;-3.70;99.90;;;;;;5032719;28;20242;-63
2021/12/22 10:49:14;;;;;;;14.40;3.67;;;-3.60;99.90;;;;;;5032446;28;20173;-60
2021/12/22 10:50:24;;;;;;;14.97;4.90;;;-3.50;99.90;;;;;;5033081;28;20656;-60
2021/12/22 10:52:50;;;;;;;7.70;2.70;;;-3.50;99.90;;;;;;5032655;28;20208;-62
2021/12/22 10:55:16;;;;;;;9.30;3.80;;;-3.60;99.90;;;;;;5006122;28;20189;-61
2021/12/22 10:57:46;;;;;;;7.37;3.97;;;-3.70;99.90;;;;;;5011829;28;20190;-61
2021/12/22 11:00:15;;;;;;;7.50;3.23;;;-3.80;99.90;;;;;;5012492;28;20212;-61
2021/12/22 11:02:45;;;;;;;5.07;2.90;;;-3.80;99.90;;;;;;5012419;28;20192;-60
2021/12/22 11:05:28;;;;;;;8.13;3.60;;;-3.70;99.90;;;;;;4979180;28;20227;-62
2021/12/22 11:07:54;;;;;;;11.63;3.83;;;-3.70;99.90;;;;;;4995809;28;20179;-63
2021/12/22 11:10:28;;;;;;;11.20;4.93;;;-3.70;99.90;;;;;;5012522;28;20203;-60
2021/12/22 11:13:06;;;;;;;10.50;4.23;;;-3.60;99.90;;;;;;4994722;28;20657;-61
2021/12/22 11:15:43;;;;;;;13.10;5.50;;;-3.50;99.90;;;;;;5008875;28;20328;-61
2021/12/22 11:18:34;;;;;;;11.80;5.20;;;-3.50;99.90;;;;;;5012009;28;20639;-61
2021/12/22 11:21:07;;;;;;;9.83;4.40;;;-3.60;99.90;;;;;;4988003;28;20258;-63
2021/12/22 11:23:35;;;;;;;13.50;4.93;;;-3.70;99.90;;;;;;4994587;28;20239;-62
2021/12/22 11:26:01;;;;;;;18.50;5.93;;;-3.60;99.90;;;;;;5007899;28;20195;-60
2021/12/22 11:28:27;;;;;;;13.53;6.10;;;-3.60;99.90;;;;;;5013352;28;20181;-64
2021/12/22 11:30:52;;;;;;;11.30;4.67;;;-3.60;99.90;;;;;;5013961;28;20218;-61
2021/12/22 11:33:18;;;;;;;15.23;6.97;;;-3.50;99.90;;;;;;5011800;28;20267;-64
2021/12/22 11:35:45;;;;;;;19.07;7.60;;;-3.60;99.90;;;;;;4993683;28;20193;-61
2021/12/22 11:38:12;;;;;;;14.50;5.70;;;-3.50;99.90;;;;;;4994753;28;20181;-60
2021/12/22 11:40:37;;;;;;;11.07;5.17;;;-3.50;99.90;;;;;;5011797;28;20532;-61
2021/12/22 11:43:04;;;;;;;15.87;5.53;;;-3.50;99.90;;;;;;5011276;28;20187;-64
2021/12/22 11:45:33;;;;;;;12.97;5.67;;;-3.60;99.90;;;;;;5011454;28;20191;-63
2021/12/22 11:47:59;;;;;;;15.63;5.47;;;-3.60;99.90;;;;;;4993624;28;20194;-61
2021/12/22 11:50:32;;;;;;;19.27;7.50;;;-3.50;99.90;;;;;;4998565;28;20230;-62
2021/12/22 11:53:06;;;;;;;18.13;7.03;;;-3.40;99.90;;;;;;5030743;28;20255;-60
2021/12/22 11:55:37;;;;;;;17.53;6.40;;;-3.30;99.90;;;;;;5003457;28;20223;-60
2021/12/22 11:58:26;;;;;;;18.13;5.67;;;-3.40;99.90;;;;;;5011111;28;21000;-61
2021/12/22 12:01:09;;;;;;;18.23;7.77;;;-3.40;99.90;;;;;;5011441;28;20642;-61
2021/12/22 12:03:44;;;;;;;14.73;6.83;;;-3.50;99.90;;;;;;5010956;28;20533;-62
2021/12/22 12:06:12;;;;;;;11.20;4.87;;;-3.70;99.90;;;;;;5011618;28;20172;-61
2021/12/22 12:08:54;;;;;;;15.97;6.33;;;-3.90;99.90;;;;;;5010329;28;20629;-61
2021/12/22 12:11:34;;;;;;;15.47;7.37;;;-3.90;99.90;;;;;;5011140;28;20619;-62
2021/12/22 12:14:11;;;;;;;17.90;8.07;;;-4.00;99.90;;;;;;5010092;28;20298;-62
2021/12/22 12:22:30;;;;;;;25.80;7.63;;;-3.80;99.90;;;;;;5011105;28;20557;-62
2021/12/22 12:25:10;;;;;;;13.03;6.17;;;-3.80;99.90;;;;;;5015876;28;20661;-61
2021/12/22 12:27:49;;;;;;;14.73;6.67;;;-3.80;99.90;;;;;;5030391;28;20625;-61
2021/12/22 12:30:41;;;;;;;14.20;6.73;;;-3.80;99.90;;;;;;5030510;28;20268;-62
2021/12/22 12:33:09;;;;;;;17.53;7.53;;;-3.80;99.90;;;;;;5030652;28;20594;-61
2021/12/22 12:35:38;;;;;;;16.50;6.53;;;-3.80;99.90;;;;;;5030016;28;20202;-61
2021/12/22 12:38:25;;;;;;;17.07;7.53;;;-3.80;99.90;;;;;;5029427;28;20251;-61
2021/12/22 12:43:51;;;;;;;18.33;7.80;;;-3.80;99.90;;;;;;5030698;28;20166;-60
2021/12/22 12:46:20;;;;;;;18.00;9.03;;;-3.80;99.90;;;;;;5031069;28;20173;-60
2021/12/22 12:48:46;;;;;;;18.37;8.17;;;-3.60;99.90;;;;;;5030396;28;20698;-61
2021/12/22 12:51:18;;;;;;;16.83;8.10;;;-3.80;99.90;;;;;;5019697;28;20189;-61
2021/12/22 12:53:49;;;;;;;25.43;8.60;;;-3.80;99.90;;;;;;5010162;28;20218;-61
2021/12/22 12:56:16;;;;;;;19.77;8.40;;;-3.60;99.90;;;;;;5026483;28;20772;-61
2021/12/22 12:58:56;;;;;;;20.57;8.60;;;-3.60;99.90;;;;;;5030189;28;20184;-67
2021/12/22 13:01:46;;;;;;;22.20;7.63;;;-3.80;99.90;;;;;;5030157;28;20580;-61
2021/12/22 13:04:31;;;;;;;19.80;8.67;;;-3.80;99.90;;;;;;5029857;28;20192;-61
2021/12/22 13:07:00;;;;;;;20.13;8.50;;;-3.80;99.90;;;;;;5029944;28;20176;-62
2021/12/22 13:09:27;;;;;;;20.60;8.27;;;-3.70;99.90;;;;;;5030496;28;20262;-61
2021/12/22 13:17:30;;;;;;;17.00;7.87;;;-3.70;99.90;;;;;;5029314;28;20267;-62
2021/12/22 13:19:57;;;;;;;19.00;8.37;;;-3.90;99.90;;;;;;5029455;28;20172;-61
2021/12/22 13:22:27;;;;;;;22.43;9.20;;;-3.90;99.90;;;;;;5015341;28;20201;-60
2021/12/22 13:25:16;;;;;;;21.30;8.17;;;-3.90;99.90;;;;;;5028208;28;20200;-62